createdAt,value
2017-09-09T00:00:53.833Z,99.99
2017-09-09T00:01:53.495Z,99.99
2017-09-09T00:02:53.781Z,99.99
2017-09-09T00:03:54.236Z,99.99
2017-09-09T00:04:53.760Z,99.99
2017-09-09T00:05:53.741Z,99.99
2017-09-09T00:06:53.411Z,99.99
2017-09-09T00:07:53.714Z,99.99
2017-09-09T00:08:53.372Z,99.99
2017-09-09T00:09:53.356Z,99.99
2017-09-09T00:10:53.344Z,99.99
2017-09-09T00:11:53.320Z,99.99
2017-09-09T00:12:53.622Z,99.99
2017-09-09T00:13:53.589Z,99.99
2017-09-09T00:14:53.582Z,99.99
2017-09-09T00:15:53.563Z,99.99
2017-09-09T00:16:53.553Z,99.99
2017-09-09T00:17:53.231Z,99.99
2017-09-09T00:18:53.510Z,99.99
2017-09-09T00:19:53.180Z,99.99
2017-09-09T00:20:53.479Z,99.99
2017-09-09T00:21:53.150Z,99.99
2017-09-09T00:22:53.129Z,99.99
2017-09-09T00:23:53.421Z,99.99
2017-09-09T00:24:53.411Z,99.99
2017-09-09T00:25:53.383Z,99.99
2017-09-09T00:26:53.362Z,99.99
2017-09-09T00:27:53.362Z,99.99
2017-09-09T00:28:53.025Z,99.99
2017-09-09T00:29:53.020Z,99.99
2017-09-09T00:30:53.304Z,99.99
2017-09-09T00:31:53.291Z,99.99
2017-09-09T00:32:53.280Z,99.99
2017-09-09T00:33:53.259Z,99.99
2017-09-09T00:34:53.238Z,99.99
2017-09-09T00:35:53.213Z,99.99
2017-09-09T00:36:53.213Z,99.99
2017-09-09T00:37:52.911Z,99.99
2017-09-09T00:38:53.162Z,99.99
2017-09-09T00:39:52.837Z,99.99
2017-09-09T00:40:52.821Z,99.99
2017-09-09T00:41:53.112Z,99.99
2017-09-09T00:42:52.780Z,99.99
2017-09-09T00:43:53.078Z,99.99
2017-09-09T00:44:53.070Z,99.99
2017-09-09T00:45:52.831Z,99.99
2017-09-09T00:46:53.017Z,99.99
2017-09-09T00:47:52.736Z,99.99
2017-09-09T00:48:52.990Z,99.99
2017-09-09T00:49:52.982Z,99.99
2017-09-09T00:50:52.971Z,99.99
2017-09-09T00:51:52.950Z,99.99
2017-09-09T00:52:52.911Z,99.99
2017-09-09T00:53:52.896Z,99.99
2017-09-09T00:54:52.583Z,99.99
2017-09-09T00:55:52.870Z,99.99
2017-09-09T00:56:52.859Z,99.99
2017-09-09T00:57:52.553Z,99.99
2017-09-09T00:58:52.510Z,99.99
2017-09-09T00:59:52.801Z,99.99
2017-09-09T01:00:52.796Z,99.99
2017-09-09T01:01:52.761Z,99.99
2017-09-09T01:02:52.746Z,99.99
2017-09-09T01:03:52.732Z,99.99
2017-09-09T01:04:52.717Z,99.99
2017-09-09T01:05:52.700Z,99.99
2017-09-09T01:06:52.674Z,99.99
2017-09-09T01:07:52.655Z,99.99
2017-09-09T01:08:52.643Z,99.99
2017-09-09T01:09:52.665Z,99.99
2017-09-09T01:10:52.620Z,99.99
2017-09-09T01:11:52.592Z,99.99
2017-09-09T01:12:52.569Z,99.99
2017-09-09T01:13:52.549Z,99.99
2017-09-09T01:14:52.222Z,99.99
2017-09-09T01:15:52.520Z,99.99
2017-09-09T01:16:52.509Z,99.99
2017-09-09T01:17:52.490Z,99.99
2017-09-09T01:18:52.470Z,99.99
2017-09-09T01:19:52.473Z,99.99
2017-09-09T01:20:52.442Z,99.99
2017-09-09T01:21:52.726Z,99.99
2017-09-09T01:22:52.396Z,99.99
2017-09-09T01:23:52.390Z,99.99
2017-09-09T01:24:52.361Z,99.99
2017-09-09T01:25:52.354Z,99.99
2017-09-09T01:26:52.330Z,99.99
2017-09-09T01:27:52.340Z,99.99
2017-09-09T01:28:52.290Z,99.99
2017-09-09T01:29:52.300Z,99.99
2017-09-09T01:30:52.258Z,99.99
2017-09-09T01:31:52.258Z,99.99
2017-09-09T01:32:52.225Z,99.99
2017-09-09T01:33:52.209Z,99.99
2017-09-09T01:34:52.193Z,99.99
2017-09-09T01:35:52.161Z,99.99
2017-09-09T01:36:51.850Z,99.99
2017-09-09T01:37:51.829Z,99.99
2017-09-09T01:38:52.115Z,99.99
2017-09-09T01:39:51.793Z,99.99
2017-09-09T01:40:51.769Z,99.99
2017-09-09T01:41:51.749Z,99.99
2017-09-09T01:42:52.038Z,99.99
2017-09-09T01:43:52.029Z,99.99
2017-09-09T01:44:51.698Z,99.99
2017-09-09T01:45:51.689Z,99.99
2017-09-09T01:46:52.064Z,99.99
2017-09-09T01:47:51.659Z,99.99
2017-09-09T01:48:51.955Z,99.99
2017-09-09T01:49:51.617Z,99.99
2017-09-09T01:50:51.910Z,99.99
2017-09-09T01:51:51.889Z,99.99
2017-09-09T01:52:51.878Z,99.99
2017-09-09T01:53:51.855Z,99.99
2017-09-09T01:54:51.838Z,99.99
2017-09-09T01:55:51.819Z,99.99
2017-09-09T01:56:51.798Z,99.99
2017-09-09T01:57:51.778Z,99.99
2017-09-09T01:58:51.761Z,99.99
2017-09-09T01:59:51.441Z,99.99
2017-09-09T02:00:51.729Z,99.99
2017-09-09T02:01:51.711Z,99.99
2017-09-09T02:02:51.688Z,99.99
2017-09-09T02:03:51.364Z,99.99
2017-09-09T02:04:51.670Z,99.99
2017-09-09T02:05:51.333Z,99.99
2017-09-09T02:06:51.638Z,99.99
2017-09-09T02:07:51.301Z,99.99
2017-09-09T02:08:51.287Z,99.99
2017-09-09T02:09:51.569Z,99.99
2017-09-09T02:10:51.560Z,99.99
2017-09-09T02:11:51.231Z,99.99
2017-09-09T02:12:51.235Z,99.99
2017-09-09T02:13:51.520Z,99.99
2017-09-09T02:14:51.178Z,99.99
2017-09-09T02:15:51.461Z,99.99
2017-09-09T02:16:51.448Z,99.99
2017-09-09T02:17:51.428Z,99.99
2017-09-09T02:18:51.418Z,99.99
2017-09-09T02:19:51.416Z,99.99
2017-09-09T02:20:51.070Z,99.99
2017-09-09T02:21:51.054Z,99.99
2017-09-09T02:22:51.351Z,99.99
2017-09-09T02:23:51.068Z,99.99
2017-09-09T02:24:51.318Z,99.99
2017-09-09T02:25:51.320Z,99.99
2017-09-09T02:26:50.988Z,99.99
2017-09-09T02:27:51.315Z,99.99
2017-09-09T02:28:51.245Z,99.99
2017-09-09T02:29:51.309Z,99.99
2017-09-09T02:30:50.896Z,99.99
2017-09-09T02:31:51.307Z,99.99
2017-09-09T02:32:51.169Z,99.99
2017-09-09T02:33:50.894Z,99.99
2017-09-09T02:34:51.138Z,99.99
2017-09-09T02:35:51.218Z,99.99
2017-09-09T02:36:51.099Z,99.99
2017-09-09T02:37:50.827Z,99.99
2017-09-09T02:38:50.746Z,99.99
2017-09-09T02:39:51.048Z,99.99
2017-09-09T02:40:51.048Z,99.99
2017-09-09T02:41:51.109Z,99.99
2017-09-09T02:42:51.090Z,99.99
2017-09-09T02:43:50.670Z,99.99
2017-09-09T02:44:50.649Z,99.99
2017-09-09T02:45:50.938Z,99.99
2017-09-09T02:46:50.964Z,99.99
2017-09-09T02:47:50.993Z,99.99
2017-09-09T02:48:50.568Z,99.99
2017-09-09T02:49:50.870Z,99.99
2017-09-09T02:50:50.539Z,99.99
2017-09-09T02:51:50.848Z,99.99
2017-09-09T02:52:50.519Z,99.99
2017-09-09T02:53:50.849Z,99.99
2017-09-09T02:54:50.469Z,99.99
2017-09-09T02:55:50.761Z,99.99
2017-09-09T02:56:50.428Z,99.99
2017-09-09T02:57:50.417Z,99.99
2017-09-09T02:58:50.705Z,99.99
2017-09-09T02:59:50.428Z,99.99
2017-09-09T03:00:50.712Z,99.99
2017-09-09T03:01:50.338Z,99.99
2017-09-09T03:02:50.638Z,99.99
2017-09-09T03:03:50.618Z,99.99
2017-09-09T03:04:50.597Z,99.99
2017-09-09T03:05:50.584Z,99.99
2017-09-09T03:06:50.267Z,99.99
2017-09-09T03:07:50.548Z,99.99
2017-09-09T03:08:50.531Z,99.99
2017-09-09T03:09:50.508Z,99.99
2017-09-09T03:10:50.509Z,99.99
2017-09-09T03:11:50.469Z,99.99
2017-09-09T03:12:50.469Z,99.99
2017-09-09T03:13:50.437Z,99.99
2017-09-09T03:14:50.428Z,99.99
2017-09-09T03:15:50.400Z,99.99
2017-09-09T03:16:50.072Z,99.99
2017-09-09T03:17:50.059Z,99.99
2017-09-09T03:18:50.348Z,99.99
2017-09-09T03:19:50.353Z,99.99
2017-09-09T03:20:50.369Z,99.99
2017-09-09T03:21:50.300Z,99.99
2017-09-09T03:22:49.968Z,99.99
2017-09-09T03:23:50.266Z,99.99
2017-09-09T03:24:50.239Z,99.99
2017-09-09T03:25:50.220Z,99.99
2017-09-09T03:26:50.210Z,99.99
2017-09-09T03:27:50.189Z,99.99
2017-09-09T03:28:50.166Z,99.99
2017-09-09T03:29:50.150Z,99.99
2017-09-09T03:30:49.820Z,99.99
2017-09-09T03:31:50.118Z,99.99
2017-09-09T03:32:50.095Z,99.99
2017-09-09T03:33:49.770Z,99.99
2017-09-09T03:34:49.750Z,99.99
2017-09-09T03:35:50.041Z,99.99
2017-09-09T03:36:50.028Z,99.99
2017-09-09T03:37:50.008Z,99.99
2017-09-09T03:38:50.002Z,99.99
2017-09-09T03:39:50.009Z,99.99
2017-09-09T03:40:49.957Z,99.99
2017-09-09T03:41:49.929Z,99.99
2017-09-09T03:42:49.919Z,99.99
2017-09-09T03:43:49.899Z,99.99
2017-09-09T03:44:49.879Z,99.99
2017-09-09T03:45:49.860Z,99.99
2017-09-09T03:46:49.538Z,99.99
2017-09-09T03:47:49.830Z,99.99
2017-09-09T03:48:49.808Z,99.99
2017-09-09T03:49:49.481Z,99.99
2017-09-09T03:50:49.771Z,99.99
2017-09-09T03:51:49.762Z,99.99
2017-09-09T03:52:49.738Z,99.99
2017-09-09T03:53:49.411Z,99.99
2017-09-09T03:54:49.704Z,99.99
2017-09-09T03:55:49.377Z,99.99
2017-09-09T03:56:49.668Z,99.99
2017-09-09T03:57:49.662Z,99.99
2017-09-09T03:58:49.335Z,99.99
2017-09-09T03:59:49.628Z,99.99
2017-09-09T04:00:49.598Z,99.99
2017-09-09T04:01:49.573Z,99.99
2017-09-09T04:02:49.249Z,99.99
2017-09-09T04:03:49.548Z,99.99
2017-09-09T04:04:49.541Z,99.99
2017-09-09T04:05:49.198Z,99.99
2017-09-09T04:06:49.181Z,99.99
2017-09-09T04:07:49.156Z,99.99
2017-09-09T04:08:49.457Z,99.99
2017-09-09T04:09:49.439Z,99.99
2017-09-09T04:10:49.417Z,99.99
2017-09-09T04:11:49.409Z,99.99
2017-09-09T04:12:49.379Z,99.99
2017-09-09T04:13:49.369Z,99.99
2017-09-09T04:14:49.348Z,99.99
2017-09-09T04:15:49.329Z,99.99
2017-09-09T04:16:49.309Z,99.99
2017-09-09T04:17:49.288Z,99.99
2017-09-09T04:18:48.958Z,99.99
2017-09-09T04:19:49.252Z,99.99
2017-09-09T04:20:49.249Z,99.99
2017-09-09T04:21:49.219Z,99.99
2017-09-09T04:22:49.198Z,99.99
2017-09-09T04:23:49.179Z,99.99
2017-09-09T04:24:49.160Z,99.99
2017-09-09T04:25:49.156Z,99.99
2017-09-09T04:26:49.139Z,99.99
2017-09-09T04:27:48.798Z,99.99
2017-09-09T04:28:49.089Z,99.99
2017-09-09T04:29:49.078Z,99.99
2017-09-09T04:30:49.057Z,99.99
2017-09-09T04:31:49.052Z,99.99
2017-09-09T04:32:49.021Z,99.99
2017-09-09T04:33:48.689Z,99.99
2017-09-09T04:34:48.672Z,99.99
2017-09-09T04:35:48.979Z,99.99
2017-09-09T04:36:48.634Z,99.99
2017-09-09T04:37:48.926Z,99.99
2017-09-09T04:38:48.904Z,99.99
2017-09-09T04:39:48.912Z,99.99
2017-09-09T04:40:48.878Z,99.99
2017-09-09T04:41:48.545Z,99.99
2017-09-09T04:42:48.529Z,99.99
2017-09-09T04:43:48.519Z,99.99
2017-09-09T04:44:48.498Z,99.99
2017-09-09T04:45:48.478Z,99.99
2017-09-09T04:46:48.797Z,99.99
2017-09-09T04:47:48.433Z,99.99
2017-09-09T04:48:48.737Z,99.99
2017-09-09T04:49:48.714Z,99.99
2017-09-09T04:50:48.391Z,99.99
2017-09-09T04:51:48.679Z,99.99
2017-09-09T04:52:48.350Z,99.99
2017-09-09T04:53:48.649Z,99.99
2017-09-09T04:54:48.642Z,99.99
2017-09-09T04:55:48.619Z,99.99
2017-09-09T04:56:48.277Z,99.99
2017-09-09T04:57:48.569Z,99.99
2017-09-09T04:58:48.248Z,99.99
2017-09-09T04:59:48.532Z,99.99
2017-09-09T05:00:48.532Z,99.99
2017-09-09T05:01:48.502Z,99.99
2017-09-09T05:02:48.477Z,99.99
2017-09-09T05:03:48.459Z,99.99
2017-09-09T05:04:48.441Z,99.99
2017-09-09T05:05:48.434Z,99.99
2017-09-09T05:06:48.406Z,99.99
2017-09-09T05:07:48.398Z,99.99
2017-09-09T05:08:48.375Z,99.99
2017-09-09T05:09:48.359Z,99.99
2017-09-09T05:10:48.024Z,99.99
2017-09-09T05:11:48.340Z,99.99
2017-09-09T05:12:48.302Z,99.99
2017-09-09T05:13:47.980Z,99.99
2017-09-09T05:14:48.280Z,99.99
2017-09-09T05:15:47.945Z,99.99
2017-09-09T05:16:48.231Z,99.99
2017-09-09T05:17:47.920Z,99.99
2017-09-09T05:18:48.201Z,99.99
2017-09-09T05:19:48.186Z,99.99
2017-09-09T05:20:48.159Z,99.99
2017-09-09T05:21:48.161Z,99.99
2017-09-09T05:22:48.130Z,99.99
2017-09-09T05:23:47.804Z,99.99
2017-09-09T05:24:48.090Z,99.99
2017-09-09T05:25:48.072Z,99.99
2017-09-09T05:26:48.056Z,99.99
2017-09-09T05:27:48.040Z,99.99
2017-09-09T05:28:48.018Z,99.99
2017-09-09T05:29:48.000Z,99.99
2017-09-09T05:30:47.979Z,99.99
2017-09-09T05:31:47.965Z,99.99
2017-09-09T05:32:47.967Z,99.99
2017-09-09T05:33:47.933Z,99.99
2017-09-09T05:34:47.917Z,99.99
2017-09-09T05:35:47.891Z,99.99
2017-09-09T05:36:47.881Z,99.99
2017-09-09T05:37:47.859Z,99.99
2017-09-09T05:38:47.850Z,99.99
2017-09-09T05:39:47.877Z,99.99
2017-09-09T05:40:47.810Z,99.99
2017-09-09T05:41:47.517Z,99.99
2017-09-09T05:42:47.775Z,99.99
2017-09-09T05:43:47.440Z,99.99
2017-09-09T05:44:47.420Z,99.99
2017-09-09T05:45:47.407Z,99.99
2017-09-09T05:46:47.702Z,99.99
2017-09-09T05:47:47.679Z,99.99
2017-09-09T05:48:47.656Z,99.99
2017-09-09T05:49:47.648Z,99.99
2017-09-09T05:50:47.630Z,99.99
2017-09-09T05:51:47.610Z,99.99
2017-09-09T05:52:47.599Z,99.99
2017-09-09T05:53:47.583Z,99.99
2017-09-09T05:54:47.561Z,99.99
2017-09-09T05:55:47.227Z,99.99
2017-09-09T05:56:47.521Z,99.99
2017-09-09T05:57:47.511Z,99.99
2017-09-09T05:58:47.479Z,99.99
2017-09-09T05:59:47.721Z,99.99
2017-09-09T06:00:47.450Z,99.99
2017-09-09T06:01:47.429Z,99.99
2017-09-09T06:02:47.418Z,99.99
2017-09-09T06:03:47.410Z,99.99
2017-09-09T06:04:47.380Z,99.99
2017-09-09T06:05:47.350Z,99.99
2017-09-09T06:06:47.347Z,99.99
2017-09-09T06:07:47.315Z,99.99
2017-09-09T06:08:46.991Z,99.99
2017-09-09T06:09:47.280Z,99.99
2017-09-09T06:10:47.270Z,99.99
2017-09-09T06:11:47.251Z,99.99
2017-09-09T06:12:46.932Z,99.99
2017-09-09T06:13:47.209Z,99.99
2017-09-09T06:14:47.201Z,99.99
2017-09-09T06:15:46.869Z,99.99
2017-09-09T06:16:47.160Z,99.99
2017-09-09T06:17:47.140Z,99.99
2017-09-09T06:18:47.121Z,99.99
2017-09-09T06:19:47.100Z,99.99
2017-09-09T06:20:47.101Z,99.99
2017-09-09T06:21:47.070Z,99.99
2017-09-09T06:22:47.060Z,99.99
2017-09-09T06:23:47.031Z,99.99
2017-09-09T06:24:47.020Z,99.99
2017-09-09T06:25:46.690Z,99.99
2017-09-09T06:26:46.670Z,99.99
2017-09-09T06:27:46.962Z,99.99
2017-09-09T06:28:46.950Z,99.99
2017-09-09T06:29:46.619Z,99.99
2017-09-09T06:30:46.586Z,99.99
2017-09-09T06:31:46.883Z,99.99
2017-09-09T06:32:46.560Z,99.99
2017-09-09T06:33:46.851Z,99.99
2017-09-09T06:34:46.568Z,99.99
2017-09-09T06:35:46.499Z,99.99
2017-09-09T06:36:46.791Z,99.99
2017-09-09T06:37:46.789Z,99.99
2017-09-09T06:38:46.750Z,99.99
2017-09-09T06:39:46.740Z,99.99
2017-09-09T06:40:46.722Z,99.99
2017-09-09T06:41:46.700Z,99.99
2017-09-09T06:42:46.701Z,99.99
2017-09-09T06:43:46.660Z,99.99
2017-09-09T06:44:46.339Z,99.99
2017-09-09T06:45:46.628Z,99.99
2017-09-09T06:46:46.298Z,99.99
2017-09-09T06:47:46.600Z,99.99
2017-09-09T06:48:46.579Z,99.99
2017-09-09T06:49:46.571Z,99.99
2017-09-09T06:50:46.553Z,99.99
2017-09-09T06:51:46.219Z,99.99
2017-09-09T06:52:46.522Z,99.99
2017-09-09T06:53:46.489Z,99.99
2017-09-09T06:54:46.483Z,99.99
2017-09-09T06:55:46.461Z,99.99
2017-09-09T06:56:46.429Z,99.99
2017-09-09T06:57:46.422Z,99.99
2017-09-09T06:58:46.405Z,99.99
2017-09-09T06:59:46.070Z,99.99
2017-09-09T07:00:46.360Z,99.99
2017-09-09T07:01:46.339Z,99.99
2017-09-09T07:02:46.334Z,99.99
2017-09-09T07:03:46.321Z,99.99
2017-09-09T07:04:46.288Z,99.99
2017-09-09T07:05:45.969Z,99.99
2017-09-09T07:06:45.950Z,99.99
2017-09-09T07:07:46.242Z,99.99
2017-09-09T07:08:46.209Z,99.99
2017-09-09T07:09:46.198Z,99.99
2017-09-09T07:10:46.178Z,99.99
2017-09-09T07:11:46.171Z,99.99
2017-09-09T07:12:45.839Z,99.99
2017-09-09T07:13:46.121Z,99.99
2017-09-09T07:14:45.798Z,99.99
2017-09-09T07:15:46.089Z,99.99
2017-09-09T07:16:45.766Z,99.99
2017-09-09T07:17:45.749Z,99.99
2017-09-09T07:18:46.039Z,99.99
2017-09-09T07:19:46.019Z,99.99
2017-09-09T07:20:46.009Z,99.99
2017-09-09T07:21:45.691Z,99.99
2017-09-09T07:22:45.968Z,99.99
2017-09-09T07:23:45.949Z,99.99
2017-09-09T07:24:45.630Z,99.99
2017-09-09T07:25:45.909Z,99.99
2017-09-09T07:26:45.961Z,99.99
2017-09-09T07:27:45.877Z,99.99
2017-09-09T07:28:45.861Z,99.99
2017-09-09T07:29:45.534Z,99.99
2017-09-09T07:30:45.831Z,99.99
2017-09-09T07:31:45.818Z,99.99
2017-09-09T07:32:45.900Z,99.99
2017-09-09T07:33:45.769Z,99.99
2017-09-09T07:34:45.760Z,99.99
2017-09-09T07:35:45.737Z,99.99
2017-09-09T07:36:45.734Z,99.99
2017-09-09T07:37:45.704Z,99.99
2017-09-09T07:38:45.689Z,99.99
2017-09-09T07:39:45.670Z,99.99
2017-09-09T07:40:45.349Z,99.99
2017-09-09T07:41:45.630Z,99.99
2017-09-09T07:42:45.730Z,99.99
2017-09-09T07:43:45.601Z,99.99
2017-09-09T07:44:45.703Z,99.99
2017-09-09T07:45:45.561Z,99.99
2017-09-09T07:46:45.542Z,99.99
2017-09-09T07:47:45.516Z,99.99
2017-09-09T07:48:45.515Z,99.99
2017-09-09T07:49:45.501Z,99.99
2017-09-09T07:50:45.551Z,99.99
2017-09-09T07:51:45.557Z,99.99
2017-09-09T07:52:45.446Z,99.99
2017-09-09T07:53:45.417Z,99.99
2017-09-09T07:54:45.097Z,99.99
2017-09-09T07:55:45.070Z,99.99
2017-09-09T07:56:45.155Z,99.99
2017-09-09T07:57:45.039Z,99.99
2017-09-09T07:58:45.119Z,99.99
2017-09-09T07:59:45.314Z,99.99
2017-09-09T08:00:44.988Z,99.99
2017-09-09T08:01:45.278Z,99.99
2017-09-09T08:02:45.317Z,99.99
2017-09-09T08:03:45.247Z,99.99
2017-09-09T08:04:45.024Z,99.99
2017-09-09T08:05:45.206Z,99.99
2017-09-09T08:06:45.277Z,99.99
2017-09-09T08:07:45.246Z,99.99
2017-09-09T08:08:45.163Z,99.99
2017-09-09T08:09:45.187Z,99.99
2017-09-09T08:10:45.128Z,99.99
2017-09-09T08:11:45.098Z,99.99
2017-09-09T08:12:45.098Z,99.99
2017-09-09T08:13:45.067Z,99.99
2017-09-09T08:14:45.066Z,99.99
2017-09-09T08:15:45.031Z,99.99
2017-09-09T08:16:45.028Z,99.99
2017-09-09T08:17:45.057Z,99.99
2017-09-09T08:18:44.670Z,99.99
2017-09-09T08:19:44.642Z,99.99
2017-09-09T08:20:44.935Z,99.99
2017-09-09T08:21:44.937Z,99.99
2017-09-09T08:22:44.907Z,99.99
2017-09-09T08:23:44.884Z,99.99
2017-09-09T08:24:44.878Z,99.99
2017-09-09T08:25:44.553Z,99.99
2017-09-09T08:26:44.837Z,99.99
2017-09-09T08:27:44.817Z,99.99
2017-09-09T08:28:44.817Z,99.99
2017-09-09T08:29:44.890Z,99.99
2017-09-09T08:30:44.788Z,99.99
2017-09-09T08:31:44.440Z,99.99
2017-09-09T08:32:44.760Z,99.99
2017-09-09T08:33:44.731Z,99.99
2017-09-09T08:34:44.708Z,99.99
2017-09-09T08:35:44.378Z,99.99
2017-09-09T08:36:44.669Z,99.99
2017-09-09T08:37:44.659Z,99.99
2017-09-09T08:38:44.340Z,99.99
2017-09-09T08:39:44.617Z,99.99
2017-09-09T08:40:44.598Z,99.99
2017-09-09T08:41:44.584Z,99.99
2017-09-09T08:42:44.263Z,99.99
2017-09-09T08:43:44.548Z,99.99
2017-09-09T08:44:44.527Z,99.99
2017-09-09T08:45:44.207Z,99.99
2017-09-09T08:46:44.510Z,99.99
2017-09-09T08:47:44.491Z,99.99
2017-09-09T08:48:44.468Z,99.99
2017-09-09T08:49:44.456Z,99.99
2017-09-09T08:50:44.427Z,99.99
2017-09-09T08:51:44.103Z,99.99
2017-09-09T08:52:44.399Z,99.99
2017-09-09T08:53:44.071Z,99.99
2017-09-09T08:54:44.357Z,99.99
2017-09-09T08:55:44.348Z,99.99
2017-09-09T08:56:44.326Z,99.99
2017-09-09T08:57:44.307Z,99.99
2017-09-09T08:58:44.307Z,99.99
2017-09-09T08:59:44.280Z,99.99
2017-09-09T09:00:44.257Z,99.99
2017-09-09T09:01:44.247Z,99.99
2017-09-09T09:02:43.916Z,99.99
2017-09-09T09:03:44.248Z,99.99
2017-09-09T09:04:43.875Z,99.99
2017-09-09T09:05:44.186Z,99.99
2017-09-09T09:06:43.844Z,99.99
2017-09-09T09:07:44.157Z,99.99
2017-09-09T09:08:44.138Z,99.99
2017-09-09T09:09:44.120Z,99.99
2017-09-09T09:10:44.090Z,99.99
2017-09-09T09:11:44.089Z,99.99
2017-09-09T09:12:44.063Z,99.99
2017-09-09T09:13:44.036Z,99.99
2017-09-09T09:14:44.076Z,99.99
2017-09-09T09:15:44.000Z,99.99
2017-09-09T09:16:43.989Z,99.99
2017-09-09T09:17:43.980Z,99.99
2017-09-09T09:18:43.956Z,99.99
2017-09-09T09:19:43.627Z,99.99
2017-09-09T09:20:44.006Z,99.99
2017-09-09T09:21:43.918Z,99.99
2017-09-09T09:22:43.596Z,99.99
2017-09-09T09:23:43.553Z,99.99
2017-09-09T09:24:43.858Z,99.99
2017-09-09T09:25:43.847Z,99.99
2017-09-09T09:26:43.850Z,99.99
2017-09-09T09:27:43.806Z,99.99
2017-09-09T09:28:43.797Z,99.99
2017-09-09T09:29:43.462Z,99.99
2017-09-09T09:30:43.440Z,99.99
2017-09-09T09:31:43.747Z,99.99
2017-09-09T09:32:43.404Z,99.99
2017-09-09T09:33:43.722Z,99.99
2017-09-09T09:34:43.686Z,99.99
2017-09-09T09:35:43.689Z,99.99
2017-09-09T09:36:43.660Z,99.99
2017-09-09T09:37:43.638Z,99.99
2017-09-09T09:38:43.647Z,99.99
2017-09-09T09:39:43.310Z,99.99
2017-09-09T09:40:43.590Z,99.99
2017-09-09T09:41:43.620Z,99.99
2017-09-09T09:42:43.564Z,99.99
2017-09-09T09:43:43.246Z,99.99
2017-09-09T09:44:43.536Z,99.99
2017-09-09T09:45:43.507Z,99.99
2017-09-09T09:46:43.198Z,99.99
2017-09-09T09:47:43.467Z,99.99
2017-09-09T09:48:43.147Z,99.99
2017-09-09T09:49:43.436Z,99.99
2017-09-09T09:50:43.433Z,99.99
2017-09-09T09:51:43.417Z,99.99
2017-09-09T09:52:43.398Z,99.99
2017-09-09T09:53:43.386Z,99.99
2017-09-09T09:54:43.370Z,99.99
2017-09-09T09:55:43.360Z,99.99
2017-09-09T09:56:43.022Z,99.99
2017-09-09T09:57:43.321Z,99.99
2017-09-09T09:58:43.298Z,99.99
2017-09-09T09:59:43.291Z,99.99
2017-09-09T10:00:43.277Z,99.99
2017-09-09T10:01:42.948Z,99.99
2017-09-09T10:02:43.253Z,99.99
2017-09-09T10:03:43.225Z,99.99
2017-09-09T10:04:43.210Z,99.99
2017-09-09T10:05:43.208Z,99.99
2017-09-09T10:06:42.871Z,99.99
2017-09-09T10:07:43.166Z,99.99
2017-09-09T10:08:43.163Z,99.99
2017-09-09T10:09:42.821Z,99.99
2017-09-09T10:10:43.139Z,99.99
2017-09-09T10:11:43.100Z,99.99
2017-09-09T10:12:43.084Z,99.99
2017-09-09T10:13:43.083Z,99.99
2017-09-09T10:14:43.066Z,99.99
2017-09-09T10:15:43.036Z,99.99
2017-09-09T10:16:43.013Z,99.99
2017-09-09T10:17:42.691Z,99.99
2017-09-09T10:18:42.970Z,99.99
2017-09-09T10:19:42.959Z,99.99
2017-09-09T10:20:42.950Z,99.99
2017-09-09T10:21:42.620Z,99.99
2017-09-09T10:22:42.910Z,99.99
2017-09-09T10:23:42.587Z,99.99
2017-09-09T10:24:42.880Z,99.99
2017-09-09T10:25:42.550Z,99.99
2017-09-09T10:26:42.863Z,99.99
2017-09-09T10:27:42.836Z,99.99
2017-09-09T10:28:42.508Z,99.99
2017-09-09T10:29:42.790Z,99.99
2017-09-09T10:30:42.782Z,99.99
2017-09-09T10:31:42.779Z,99.99
2017-09-09T10:32:42.750Z,99.99
2017-09-09T10:33:42.739Z,99.99
2017-09-09T10:34:42.719Z,99.99
2017-09-09T10:35:42.698Z,99.99
2017-09-09T10:36:42.690Z,99.99
2017-09-09T10:37:42.669Z,99.99
2017-09-09T10:38:42.653Z,99.99
2017-09-09T10:39:42.641Z,99.99
2017-09-09T10:40:42.620Z,99.99
2017-09-09T10:41:42.608Z,99.99
2017-09-09T10:42:42.586Z,99.99
2017-09-09T10:43:42.579Z,99.99
2017-09-09T10:44:42.251Z,99.99
2017-09-09T10:45:42.531Z,99.99
2017-09-09T10:46:42.219Z,99.99
2017-09-09T10:47:42.205Z,99.99
2017-09-09T10:48:42.501Z,99.99
2017-09-09T10:49:42.169Z,99.99
2017-09-09T10:50:42.468Z,99.99
2017-09-09T10:51:42.458Z,99.99
2017-09-09T10:52:42.462Z,99.99
2017-09-09T10:53:42.418Z,99.99
2017-09-09T10:54:42.398Z,99.99
2017-09-09T10:55:42.080Z,99.99
2017-09-09T10:56:42.360Z,99.99
2017-09-09T10:57:42.352Z,99.99
2017-09-09T10:58:42.339Z,99.99
2017-09-09T10:59:42.013Z,99.99
2017-09-09T11:00:42.310Z,99.99
2017-09-09T11:01:41.991Z,99.99
2017-09-09T11:02:41.960Z,99.99
2017-09-09T11:03:42.261Z,99.99
2017-09-09T11:04:42.241Z,99.99
2017-09-09T11:05:42.271Z,99.99
2017-09-09T11:06:42.208Z,99.99
2017-09-09T11:07:42.271Z,99.99
2017-09-09T11:08:42.189Z,99.99
2017-09-09T11:09:41.859Z,99.99
2017-09-09T11:10:42.159Z,99.99
2017-09-09T11:11:42.148Z,99.99
2017-09-09T11:12:41.810Z,99.99
2017-09-09T11:13:42.179Z,99.99
2017-09-09T11:14:42.095Z,99.99
2017-09-09T11:15:42.110Z,99.99
2017-09-09T11:16:42.085Z,99.99
2017-09-09T11:17:42.061Z,99.99
2017-09-09T11:18:42.040Z,99.99
2017-09-09T11:19:41.812Z,99.99
2017-09-09T11:20:42.013Z,99.99
2017-09-09T11:21:42.001Z,99.99
2017-09-09T11:22:41.981Z,99.99
2017-09-09T11:23:41.988Z,99.99
2017-09-09T11:24:42.022Z,99.99
2017-09-09T11:25:41.937Z,99.99
2017-09-09T11:26:41.940Z,99.99
2017-09-09T11:27:41.648Z,99.99
2017-09-09T11:28:41.910Z,99.99
2017-09-09T11:29:41.580Z,99.99
2017-09-09T11:30:41.880Z,99.99
2017-09-09T11:31:41.862Z,99.99
2017-09-09T11:32:41.538Z,99.99
2017-09-09T11:33:41.529Z,99.99
2017-09-09T11:34:41.833Z,99.99
2017-09-09T11:35:41.799Z,99.99
2017-09-09T11:36:41.802Z,99.99
2017-09-09T11:37:41.472Z,99.64
2017-09-09T11:38:41.478Z,96.85
2017-09-09T11:39:41.749Z,96.56
2017-09-09T11:40:41.741Z,94.87
2017-09-09T11:41:41.419Z,94.68
2017-09-09T11:42:41.712Z,94.82
2017-09-09T11:43:41.391Z,92.46
2017-09-09T11:44:41.693Z,91.88
2017-09-09T11:45:41.672Z,92.5
2017-09-09T11:46:41.349Z,93.32
2017-09-09T11:47:41.640Z,92.99
2017-09-09T11:48:41.630Z,94.34
2017-09-09T11:49:41.630Z,93.9
2017-09-09T11:50:41.622Z,92.5
2017-09-09T11:51:41.601Z,92.16
2017-09-09T11:52:41.589Z,88.53
2017-09-09T11:53:41.570Z,87.85
2017-09-09T11:54:41.585Z,87.62
2017-09-09T11:55:41.572Z,89.51
2017-09-09T11:56:41.529Z,90.09
2017-09-09T11:57:41.541Z,90.23
2017-09-09T11:58:41.513Z,88.73
2017-09-09T11:59:41.501Z,88.25
2017-09-09T12:00:41.489Z,87.62
2017-09-09T12:01:41.168Z,87.62
2017-09-09T12:02:41.461Z,86.46
2017-09-09T12:03:41.451Z,86.65
2017-09-09T12:04:41.442Z,87
2017-09-09T12:05:41.421Z,88.65
2017-09-09T12:06:41.423Z,89.03
2017-09-09T12:07:41.409Z,89.51
2017-09-09T12:08:41.081Z,90.53
2017-09-09T12:09:41.374Z,90.96
2017-09-09T12:10:41.374Z,89.47
2017-09-09T12:11:41.363Z,89.71
2017-09-09T12:12:41.343Z,90.48
2017-09-09T12:13:41.021Z,91.3
2017-09-09T12:14:41.331Z,91.69
2017-09-09T12:15:41.312Z,91.6
2017-09-09T12:16:41.300Z,92.94
2017-09-09T12:17:41.286Z,94.34
2017-09-09T12:18:41.279Z,93.71
2017-09-09T12:19:40.953Z,92.85
2017-09-09T12:20:41.241Z,92.7
2017-09-09T12:21:41.233Z,90.91
2017-09-09T12:22:40.932Z,89.51
2017-09-09T12:23:41.207Z,88.54
2017-09-09T12:24:40.892Z,89.12
2017-09-09T12:25:41.191Z,89.22
2017-09-09T12:26:41.173Z,86.56
2017-09-09T12:27:41.261Z,84.86
2017-09-09T12:28:41.162Z,83.84
2017-09-09T12:29:40.831Z,83.84
2017-09-09T12:30:40.822Z,85.01
2017-09-09T12:31:41.112Z,85.59
2017-09-09T12:32:41.104Z,85.84
2017-09-09T12:33:40.783Z,87.44
2017-09-09T12:34:41.076Z,87.63
2017-09-09T12:35:40.769Z,88.89
2017-09-09T12:36:41.053Z,89.17
2017-09-09T12:37:40.735Z,90
2017-09-09T12:38:41.039Z,90.92
2017-09-09T12:39:41.032Z,91.5
2017-09-09T12:40:41.001Z,93.28
2017-09-09T12:41:40.992Z,93.28
2017-09-09T12:42:40.981Z,93.66
2017-09-09T12:43:40.965Z,93.66
2017-09-09T12:44:40.652Z,93.48
2017-09-09T12:45:40.959Z,92.51
2017-09-09T12:46:40.937Z,93.48
2017-09-09T12:47:40.615Z,93.33
2017-09-09T12:48:40.913Z,92.13
2017-09-09T12:49:40.892Z,92.71
2017-09-09T12:50:40.895Z,92.32
2017-09-09T12:51:40.870Z,91.2
2017-09-09T12:52:40.850Z,90.72
2017-09-09T12:53:40.844Z,92.27